X  Fermer Données météorologiques d'aviation de Metar     EHRD Rotterdam The Hague Airport
Température
22°C Température
16°C Point de rosée
69% Humidité



Vent
5 KM/H
3 MPH
1 M/S
3 KTS



150°
SSE
Conditions actuelles

Clair Clair
Pression 1013.92 (hPa) - 29.94 (inHg)
Visibilité 6.2 (mile) - 10 (km)
Aéroport
Code de l'aéroport EHRD

Emplacement: Rotterdam The Hague Airport
Distance: 16 (km)

Metar:
EHRD 251425Z AUTO 15003KT 060V210 9999 NCD 22/16 Q1014 NOSIG

Temps: 25-09-2021 16:25 CEST